createdAt,value
2019-01-10T00:01:24.405Z,3.07
2019-01-10T00:03:56.530Z,2.60
2019-01-10T00:06:28.379Z,2.10
2019-01-10T00:09:00.185Z,2.03
2019-01-10T00:11:32.439Z,1.70
2019-01-10T00:14:04.526Z,1.97
2019-01-10T00:16:36.542Z,2.90
2019-01-10T00:19:08.400Z,3.13
2019-01-10T00:21:40.245Z,2.60
2019-01-10T00:24:12.235Z,2.30
2019-01-10T00:26:45.553Z,2.23
2019-01-10T00:29:17.614Z,2.33
2019-01-10T00:31:49.556Z,2.20
2019-01-10T00:34:21.602Z,2.57
2019-01-10T00:36:53.414Z,2.67
2019-01-10T00:39:25.244Z,2.23
2019-01-10T00:41:57.236Z,2.23
2019-01-10T00:44:29.023Z,2.30
2019-01-10T00:47:00.975Z,2.30
2019-01-10T00:49:32.905Z,2.40
2019-01-10T00:52:04.805Z,2.33
2019-01-10T00:54:36.959Z,2.40
2019-01-10T00:57:08.697Z,3.63
2019-01-10T00:59:40.519Z,2.30
2019-01-10T01:02:12.348Z,2.80
2019-01-10T01:04:45.400Z,2.70
2019-01-10T01:07:17.183Z,3.03
2019-01-10T01:09:49.016Z,3.27
2019-01-10T01:12:20.948Z,2.50
2019-01-10T01:14:52.732Z,2.30
2019-01-10T01:17:24.565Z,2.40
2019-01-10T01:19:56.562Z,3.30
2019-01-10T01:22:28.364Z,2.57
2019-01-10T01:25:00.185Z,2.13
2019-01-10T01:27:32.070Z,2.80
2019-01-10T01:30:05.433Z,2.23
2019-01-10T01:32:37.239Z,2.90
2019-01-10T01:35:09.406Z,2.67
2019-01-10T01:37:41.246Z,2.97
2019-01-10T01:40:15.870Z,3.70
2019-01-10T01:42:48.536Z,3.23
2019-01-10T01:45:21.726Z,4.20
2019-01-10T01:47:53.744Z,4.13
2019-01-10T01:50:26.282Z,4.90
2019-01-10T01:52:58.223Z,4.40
2019-01-10T01:55:30.180Z,4.67
2019-01-10T01:58:02.170Z,4.07
2019-01-10T02:00:34.041Z,3.00
2019-01-10T02:03:05.982Z,2.53
2019-01-10T02:05:37.970Z,2.73
2019-01-10T02:08:10.093Z,2.60
2019-01-10T02:10:42.315Z,2.67
2019-01-10T02:13:16.869Z,3.20
2019-01-10T02:15:47.910Z,3.00
2019-01-10T02:18:19.762Z,3.60
2019-01-10T02:20:52.000Z,3.77
2019-01-10T02:23:24.015Z,3.53
2019-01-10T02:25:55.872Z,3.47
2019-01-10T02:28:28.969Z,3.90
2019-01-10T02:31:01.165Z,3.43
2019-01-10T02:33:33.039Z,2.87
2019-01-10T02:36:05.195Z,3.50
2019-01-10T02:38:43.768Z,3.00
2019-01-10T02:41:15.870Z,3.10
2019-01-10T02:43:47.715Z,2.60
2019-01-10T02:46:19.533Z,1.90
2019-01-10T02:48:51.544Z,2.10
2019-01-10T02:51:23.380Z,2.30
2019-01-10T02:53:55.434Z,2.63
2019-01-10T02:56:27.241Z,3.00
2019-01-10T02:58:59.050Z,2.87
2019-01-10T03:01:30.851Z,3.00
2019-01-10T03:04:02.725Z,3.47
2019-01-10T03:06:34.602Z,2.67
2019-01-10T03:09:10.175Z,2.57
2019-01-10T03:11:42.000Z,2.37
2019-01-10T03:14:13.854Z,3.27
2019-01-10T03:16:45.817Z,2.60
2019-01-10T03:19:17.785Z,2.67
2019-01-10T03:21:49.692Z,3.10
2019-01-10T03:24:21.474Z,2.97
2019-01-10T03:26:54.719Z,2.80
2019-01-10T03:29:26.844Z,2.60
2019-01-10T03:31:58.890Z,2.97
2019-01-10T03:34:30.803Z,2.77
2019-01-10T03:37:02.711Z,3.57
2019-01-10T03:39:34.520Z,3.83
2019-01-10T03:42:06.669Z,4.00
2019-01-10T03:44:38.571Z,3.30
2019-01-10T03:47:10.632Z,3.53
2019-01-10T03:49:42.537Z,3.20
2019-01-10T03:52:14.376Z,3.17
2019-01-10T03:54:48.599Z,2.33
2019-01-10T03:57:20.391Z,2.77
2019-01-10T03:59:52.833Z,2.30
2019-01-10T04:02:24.774Z,2.43
2019-01-10T04:04:56.754Z,2.97
2019-01-10T04:07:30.144Z,2.90
2019-01-10T04:10:01.946Z,2.60
2019-01-10T04:12:33.848Z,3.17
2019-01-10T04:15:06.826Z,3.53
2019-01-10T04:17:39.870Z,3.60
2019-01-10T04:20:14.133Z,3.40
2019-01-10T04:22:46.244Z,3.00
2019-01-10T04:25:18.103Z,3.30
2019-01-10T04:27:50.035Z,2.97
2019-01-10T04:30:22.687Z,2.80
2019-01-10T04:32:54.619Z,2.40
2019-01-10T04:35:26.390Z,2.47
2019-01-10T04:37:58.363Z,2.43
2019-01-10T04:40:30.149Z,8.47
2019-01-10T04:43:01.942Z,3.23
2019-01-10T04:45:33.916Z,3.00
2019-01-10T04:48:05.874Z,2.77
2019-01-10T04:50:37.684Z,2.47
2019-01-10T04:53:09.442Z,2.50
2019-01-10T04:55:41.285Z,2.53
2019-01-10T04:58:13.095Z,2.57
2019-01-10T05:00:44.898Z,2.90
2019-01-10T05:03:16.734Z,3.20
2019-01-10T05:05:48.547Z,2.20
2019-01-10T05:08:20.403Z,2.60
2019-01-10T05:10:52.385Z,2.17
2019-01-10T05:13:25.380Z,2.40
2019-01-10T05:15:57.273Z,2.67
2019-01-10T05:18:29.313Z,2.27
2019-01-10T05:21:01.280Z,2.33
2019-01-10T05:23:33.337Z,2.70
2019-01-10T05:26:05.526Z,2.20
2019-01-10T05:28:38.279Z,2.00
2019-01-10T05:31:10.145Z,2.57
2019-01-10T05:33:42.044Z,2.70
2019-01-10T05:36:14.248Z,2.10
2019-01-10T05:38:46.156Z,2.47
2019-01-10T05:41:18.137Z,2.20
2019-01-10T05:43:49.960Z,1.87
2019-01-10T05:46:21.752Z,2.20
2019-01-10T05:48:53.749Z,2.10
2019-01-10T05:51:25.826Z,2.03
2019-01-10T05:53:57.579Z,3.33
2019-01-10T05:56:29.568Z,2.23
2019-01-10T05:59:01.942Z,2.10
2019-01-10T06:01:33.719Z,2.87
2019-01-10T06:04:05.749Z,2.10
2019-01-10T06:06:37.829Z,1.87
2019-01-10T06:09:10.929Z,2.03
2019-01-10T06:11:43.021Z,2.07
2019-01-10T06:14:15.047Z,2.00
2019-01-10T06:16:47.069Z,1.97
2019-01-10T06:19:26.812Z,1.80
2019-01-10T06:21:52.437Z,2.30
2019-01-10T06:24:24.378Z,2.37
2019-01-10T06:26:56.238Z,2.13
2019-01-10T06:29:28.043Z,2.57
2019-01-10T06:31:59.928Z,2.47
2019-01-10T06:34:31.770Z,2.57
2019-01-10T06:37:03.668Z,2.23
2019-01-10T06:39:35.639Z,2.40
2019-01-10T06:42:07.550Z,2.73
2019-01-10T06:44:44.505Z,2.40
2019-01-10T06:47:13.071Z,2.87
2019-01-10T06:49:44.879Z,2.23
2019-01-10T06:52:16.858Z,2.27
2019-01-10T06:54:56.509Z,2.40
2019-01-10T06:57:22.199Z,2.23
2019-01-10T06:59:55.165Z,2.30
2019-01-10T07:02:26.995Z,2.53
2019-01-10T07:04:59.177Z,6.23
2019-01-10T07:07:31.304Z,3.43
2019-01-10T07:10:03.265Z,2.43
2019-01-10T07:12:35.212Z,3.33
2019-01-10T07:15:07.650Z,2.03
2019-01-10T07:17:39.677Z,2.17
2019-01-10T07:20:12.574Z,2.47
2019-01-10T07:22:55.284Z,2.20
2019-01-10T07:25:27.068Z,2.20
2019-01-10T07:28:04.735Z,1.90
2019-01-10T07:30:36.635Z,2.10
2019-01-10T07:33:13.376Z,2.70
2019-01-10T07:35:48.792Z,3.23
2019-01-10T07:38:20.609Z,2.63
2019-01-10T07:40:52.566Z,2.53
2019-01-10T07:43:27.437Z,2.57
2019-01-10T07:46:04.432Z,2.23
2019-01-10T07:48:36.305Z,2.50
2019-01-10T07:51:08.321Z,2.90
2019-01-10T07:53:40.185Z,2.60
2019-01-10T07:56:12.303Z,2.70
2019-01-10T07:58:44.389Z,2.30
2019-01-10T08:01:16.386Z,2.93
2019-01-10T08:03:48.333Z,3.07
2019-01-10T08:06:20.108Z,3.17
2019-01-10T08:08:51.982Z,2.73
2019-01-10T08:11:24.087Z,3.57
2019-01-10T08:13:56.003Z,3.57
2019-01-10T08:16:27.854Z,3.00
2019-01-10T08:18:59.834Z,3.10
2019-01-10T08:21:31.670Z,3.80
2019-01-10T08:24:03.889Z,3.40
2019-01-10T08:26:35.716Z,3.43
2019-01-10T08:29:07.666Z,3.90
2019-01-10T08:31:39.534Z,4.07
2019-01-10T08:34:11.782Z,4.77
2019-01-10T08:36:43.600Z,4.20
2019-01-10T08:39:15.859Z,4.30
2019-01-10T08:41:47.737Z,3.90
2019-01-10T08:44:19.807Z,5.37
2019-01-10T08:46:51.760Z,4.07
2019-01-10T08:49:23.579Z,3.17
2019-01-10T08:51:55.778Z,3.23
2019-01-10T08:54:27.653Z,3.23
2019-01-10T08:56:59.480Z,2.97
2019-01-10T08:59:31.295Z,2.50
2019-01-10T09:02:03.202Z,2.93
2019-01-10T09:04:35.218Z,2.23
2019-01-10T09:07:07.131Z,2.53
2019-01-10T09:09:39.049Z,2.47
2019-01-10T09:12:10.930Z,3.23
2019-01-10T09:14:42.885Z,4.07
2019-01-10T09:17:14.688Z,3.93
2019-01-10T09:19:46.715Z,3.37
2019-01-10T09:22:18.570Z,3.63
2019-01-10T09:24:50.519Z,3.33
2019-01-10T09:27:22.507Z,4.00
2019-01-10T09:29:54.393Z,3.90
2019-01-10T09:32:26.255Z,3.63
2019-01-10T09:34:58.081Z,2.50
2019-01-10T09:37:30.007Z,2.93
2019-01-10T09:40:01.786Z,3.33
2019-01-10T09:42:33.750Z,2.90
2019-01-10T09:45:07.003Z,2.43
2019-01-10T09:47:38.833Z,3.43
2019-01-10T09:50:14.296Z,3.20
2019-01-10T09:52:46.630Z,2.90
2019-01-10T09:55:18.431Z,2.80
2019-01-10T09:57:50.352Z,2.47
2019-01-10T10:00:30.931Z,2.33
2019-01-10T10:03:02.859Z,3.23
2019-01-10T10:05:34.636Z,3.20
2019-01-10T10:08:06.959Z,3.20
2019-01-10T10:10:38.810Z,3.50
2019-01-10T10:13:10.648Z,3.10
2019-01-10T10:15:42.531Z,2.63
2019-01-10T10:18:14.385Z,2.90
2019-01-10T10:20:46.442Z,2.60
2019-01-10T10:23:26.547Z,2.60
2019-01-10T10:25:52.252Z,2.50
2019-01-10T10:28:24.234Z,2.97
2019-01-10T10:30:56.167Z,4.43
2019-01-10T10:33:29.482Z,3.63
2019-01-10T10:36:03.282Z,2.60
2019-01-10T10:38:35.250Z,2.70
2019-01-10T10:41:07.214Z,2.70
2019-01-10T10:43:39.256Z,2.77
2019-01-10T10:46:11.114Z,2.90
2019-01-10T10:48:43.088Z,2.80
2019-01-10T10:51:15.104Z,2.97
2019-01-10T10:53:47.236Z,2.73
2019-01-10T10:56:19.101Z,2.60
2019-01-10T10:58:51.131Z,2.90
2019-01-10T11:01:23.032Z,3.23
2019-01-10T11:03:55.226Z,3.43
2019-01-10T11:06:27.277Z,3.00
2019-01-10T11:09:08.873Z,3.30
2019-01-10T11:11:33.265Z,2.70
2019-01-10T11:14:05.317Z,3.00
2019-01-10T11:16:37.136Z,2.90
2019-01-10T11:19:09.146Z,2.70
2019-01-10T11:21:41.130Z,2.50
2019-01-10T11:24:13.255Z,3.17
2019-01-10T11:26:45.271Z,3.10
2019-01-10T11:29:17.273Z,2.50
2019-01-10T11:31:49.810Z,2.73
2019-01-10T11:34:22.003Z,2.80
2019-01-10T11:36:54.092Z,3.70
2019-01-10T11:39:26.128Z,2.53
2019-01-10T11:41:58.326Z,2.90
2019-01-10T11:44:30.484Z,2.83
2019-01-10T11:47:02.420Z,2.47
2019-01-10T11:49:34.300Z,2.23
2019-01-10T11:52:06.275Z,2.53
2019-01-10T11:54:38.093Z,2.23
2019-01-10T11:57:10.178Z,2.97
2019-01-10T11:59:42.177Z,2.73
2019-01-10T12:02:14.129Z,3.00
2019-01-10T12:04:45.933Z,2.93
2019-01-10T12:07:17.853Z,3.27
2019-01-10T12:09:49.934Z,3.10
2019-01-10T12:12:21.949Z,2.60
2019-01-10T12:14:53.854Z,3.53
2019-01-10T12:17:25.681Z,2.67
2019-01-10T12:19:57.478Z,3.47
2019-01-10T12:22:29.561Z,2.47
2019-01-10T12:25:01.378Z,2.70
2019-01-10T12:27:33.222Z,2.80
2019-01-10T12:30:06.694Z,2.60
2019-01-10T12:32:38.550Z,4.97
2019-01-10T12:35:10.709Z,2.47
2019-01-10T12:37:42.689Z,2.07
2019-01-10T12:40:15.263Z,2.27
2019-01-10T12:42:47.308Z,2.37
2019-01-10T12:45:20.687Z,2.70
2019-01-10T12:47:52.615Z,2.07
2019-01-10T12:50:33.188Z,2.67
2019-01-10T12:53:09.745Z,2.60
2019-01-10T12:55:41.898Z,2.50
2019-01-10T12:58:13.744Z,2.57
2019-01-10T13:00:45.625Z,2.77
2019-01-10T13:03:17.550Z,2.30
2019-01-10T13:05:49.389Z,2.90
2019-01-10T13:08:21.339Z,2.97
2019-01-10T13:10:53.210Z,3.03
2019-01-10T13:13:25.186Z,2.87
2019-01-10T13:15:57.041Z,2.30
2019-01-10T13:18:28.986Z,2.50
2019-01-10T13:21:00.921Z,2.30
2019-01-10T13:23:32.922Z,2.37
2019-01-10T13:26:05.105Z,2.70
2019-01-10T13:28:37.160Z,5.03
2019-01-10T13:31:09.507Z,3.27
2019-01-10T13:33:41.612Z,3.00
2019-01-10T13:36:13.504Z,2.50
2019-01-10T13:38:46.601Z,2.30
2019-01-10T13:41:18.657Z,3.40
2019-01-10T13:43:50.563Z,2.80
2019-01-10T13:46:22.805Z,2.83
2019-01-10T13:48:54.726Z,2.80
2019-01-10T13:51:26.623Z,2.00
2019-01-10T13:53:58.589Z,2.43
2019-01-10T13:56:30.531Z,2.80
2019-01-10T13:59:02.463Z,1.70
2019-01-10T14:01:34.451Z,2.10
2019-01-10T14:04:06.433Z,2.03
2019-01-10T14:06:38.285Z,1.70
2019-01-10T14:09:11.882Z,3.03
2019-01-10T14:11:44.273Z,1.80
2019-01-10T14:14:17.416Z,2.30
2019-01-10T14:16:52.303Z,2.30
2019-01-10T14:19:24.259Z,2.40
2019-01-10T14:21:56.119Z,2.17
2019-01-10T14:24:27.996Z,2.33
2019-01-10T14:27:00.162Z,2.10
2019-01-10T14:29:32.285Z,2.23
2019-01-10T14:32:04.294Z,1.80
2019-01-10T14:34:36.252Z,2.10
2019-01-10T14:37:08.172Z,2.60
2019-01-10T14:39:40.249Z,1.80
2019-01-10T14:42:12.251Z,1.60
2019-01-10T14:44:44.356Z,1.63
2019-01-10T14:47:16.850Z,3.67
2019-01-10T14:49:48.932Z,2.30
2019-01-10T14:52:20.989Z,2.83
2019-01-10T14:54:52.871Z,2.10
2019-01-10T14:57:24.879Z,2.60
2019-01-10T14:59:56.848Z,3.17
2019-01-10T15:02:28.813Z,2.03
2019-01-10T15:05:00.780Z,2.30
2019-01-10T15:07:33.001Z,1.70
2019-01-10T15:10:05.904Z,1.80
2019-01-10T15:12:37.765Z,2.50
2019-01-10T15:15:13.534Z,2.37
2019-01-10T15:17:45.741Z,2.43
2019-01-10T15:20:27.757Z,2.13
2019-01-10T15:22:59.680Z,2.10
2019-01-10T15:25:31.677Z,2.30
2019-01-10T15:28:03.645Z,2.10
2019-01-10T15:30:35.784Z,4.30
2019-01-10T15:33:07.990Z,2.40
2019-01-10T15:35:39.869Z,1.90
2019-01-10T15:38:13.989Z,2.70
2019-01-10T15:40:45.744Z,3.20
2019-01-10T15:43:19.000Z,2.40
2019-01-10T15:45:51.044Z,2.30
2019-01-10T15:48:22.983Z,2.23
2019-01-10T15:50:55.166Z,2.50
2019-01-10T15:53:27.330Z,2.23
2019-01-10T15:55:59.209Z,2.83
2019-01-10T15:58:31.247Z,2.20
2019-01-10T16:01:03.075Z,2.47
2019-01-10T16:03:35.030Z,2.63
2019-01-10T16:06:07.144Z,2.27
2019-01-10T16:08:39.256Z,2.13
2019-01-10T16:11:11.169Z,2.13
2019-01-10T16:13:43.371Z,2.07
2019-01-10T16:16:15.246Z,2.20
2019-01-10T16:18:47.553Z,2.57
2019-01-10T16:21:19.513Z,2.80
2019-01-10T16:23:51.412Z,3.40
2019-01-10T16:26:23.439Z,2.70
2019-01-10T16:28:55.505Z,2.43
2019-01-10T16:31:27.319Z,2.73
2019-01-10T16:33:59.517Z,2.67
2019-01-10T16:36:31.379Z,2.20
2019-01-10T16:39:03.752Z,2.80
2019-01-10T16:41:36.104Z,2.27
2019-01-10T16:44:08.156Z,2.43
2019-01-10T16:46:40.272Z,2.47
2019-01-10T16:49:12.118Z,2.73
2019-01-10T16:51:44.186Z,2.40
2019-01-10T16:54:15.998Z,2.70
2019-01-10T16:56:47.948Z,3.00
2019-01-10T16:59:19.919Z,2.60
2019-01-10T17:01:51.778Z,2.70
2019-01-10T17:04:23.865Z,3.00
2019-01-10T17:06:55.827Z,3.13
2019-01-10T17:09:27.738Z,3.20
2019-01-10T17:11:59.681Z,3.10
2019-01-10T17:14:31.653Z,2.63
2019-01-10T17:17:03.624Z,3.00
2019-01-10T17:19:35.625Z,2.63
2019-01-10T17:22:07.573Z,3.40
2019-01-10T17:24:39.438Z,3.53
2019-01-10T17:27:11.333Z,3.57
2019-01-10T17:29:43.158Z,3.10
2019-01-10T17:32:16.065Z,3.60
2019-01-10T17:34:48.097Z,3.77
2019-01-10T17:37:20.167Z,3.20
2019-01-10T17:39:52.192Z,3.30
2019-01-10T17:42:24.292Z,3.77
2019-01-10T17:44:56.135Z,3.83
2019-01-10T17:47:29.347Z,3.97
2019-01-10T17:50:01.484Z,3.90
2019-01-10T17:52:33.575Z,9.17
2019-01-10T17:55:05.725Z,3.93
2019-01-10T17:57:37.846Z,4.23
2019-01-10T18:00:31.135Z,3.60
2019-01-10T18:03:02.958Z,3.43
2019-01-10T18:05:36.773Z,3.00
2019-01-10T18:08:08.713Z,3.77
2019-01-10T18:10:40.647Z,4.90
2019-01-10T18:13:12.548Z,3.73
2019-01-10T18:15:44.404Z,3.87
2019-01-10T18:18:16.515Z,3.80
2019-01-10T18:20:48.332Z,3.80
2019-01-10T18:23:21.628Z,3.80
2019-01-10T18:25:53.437Z,4.00
2019-01-10T18:28:25.463Z,3.70
2019-01-10T18:30:57.380Z,4.27
2019-01-10T18:33:29.365Z,3.53
2019-01-10T18:36:01.198Z,3.87
2019-01-10T18:38:33.419Z,4.00
2019-01-10T18:41:05.582Z,3.60
2019-01-10T18:43:37.719Z,4.03
2019-01-10T18:46:09.816Z,3.50
2019-01-10T18:48:41.845Z,4.50
2019-01-10T18:51:14.047Z,5.10
2019-01-10T18:53:46.180Z,4.67
2019-01-10T18:56:18.042Z,4.57
2019-01-10T18:58:50.108Z,4.40
2019-01-10T19:01:22.181Z,4.20
2019-01-10T19:03:54.177Z,4.30
2019-01-10T19:06:26.022Z,4.27
2019-01-10T19:08:58.241Z,4.07
2019-01-10T19:11:30.230Z,3.50
2019-01-10T19:14:02.513Z,4.60
2019-01-10T19:16:34.853Z,4.20
2019-01-10T19:19:08.247Z,4.30
2019-01-10T19:21:40.180Z,4.10
2019-01-10T19:24:14.405Z,4.13
2019-01-10T19:26:46.499Z,4.00
2019-01-10T19:29:18.429Z,3.93
2019-01-10T19:31:52.237Z,3.60
2019-01-10T19:34:24.348Z,3.93
2019-01-10T19:36:56.418Z,4.03
2019-01-10T19:39:28.573Z,3.80
2019-01-10T19:42:00.473Z,4.10
2019-01-10T19:44:32.308Z,4.33
2019-01-10T19:47:04.579Z,3.77
2019-01-10T19:49:36.390Z,4.20
2019-01-10T19:52:08.414Z,4.10
2019-01-10T19:54:40.352Z,4.00
2019-01-10T19:57:12.519Z,3.80
2019-01-10T19:59:44.400Z,3.70
2019-01-10T20:02:16.400Z,3.63
2019-01-10T20:04:48.363Z,3.80
2019-01-10T20:07:20.386Z,4.40
2019-01-10T20:09:52.679Z,4.03
2019-01-10T20:12:24.675Z,3.63
2019-01-10T20:14:56.673Z,3.70
2019-01-10T20:20:49.711Z,3.53
2019-01-10T20:23:32.493Z,3.73
2019-01-10T20:26:04.884Z,3.50
2019-01-10T20:28:36.924Z,3.70
2019-01-10T20:31:09.033Z,3.47
2019-01-10T20:33:41.293Z,3.27
2019-01-10T20:36:13.240Z,3.73
2019-01-10T20:38:45.112Z,4.27
2019-01-10T20:41:17.156Z,5.20
2019-01-10T20:43:49.128Z,4.27
2019-01-10T20:46:20.935Z,4.37
2019-01-10T20:48:53.032Z,3.93
2019-01-10T20:51:24.927Z,4.10
2019-01-10T20:53:58.061Z,4.37
2019-01-10T20:56:30.133Z,3.70
2019-01-10T20:59:03.067Z,3.53
2019-01-10T21:01:35.779Z,4.73
2019-01-10T21:04:07.896Z,3.77
2019-01-10T21:06:39.923Z,3.87
2019-01-10T21:09:13.168Z,4.00
2019-01-10T21:11:45.657Z,4.33
2019-01-10T21:14:17.592Z,3.40
2019-01-10T21:16:49.575Z,3.77
2019-01-10T21:19:33.434Z,3.60
2019-01-10T21:22:05.645Z,3.93
2019-01-10T21:24:37.468Z,4.43
2019-01-10T21:27:09.322Z,4.30
2019-01-10T21:29:41.319Z,3.63
2019-01-10T21:32:13.336Z,3.87
2019-01-10T21:34:45.510Z,3.67
2019-01-10T21:37:18.628Z,3.90
2019-01-10T21:39:50.480Z,3.67
2019-01-10T21:42:22.395Z,3.03
2019-01-10T21:44:54.247Z,3.30
2019-01-10T21:47:26.202Z,2.80
2019-01-10T21:49:58.258Z,2.23
2019-01-10T21:52:30.128Z,1.90
2019-01-10T21:55:02.009Z,1.60
2019-01-10T21:57:34.235Z,1.57
2019-01-10T22:00:13.062Z,1.90
2019-01-10T22:02:45.433Z,1.73
2019-01-10T22:05:17.419Z,1.70
2019-01-10T22:07:49.536Z,1.77
2019-01-10T22:10:21.481Z,1.80
2019-01-10T22:12:53.382Z,2.10
2019-01-10T22:15:25.383Z,1.93
2019-01-10T22:17:57.420Z,2.30
2019-01-10T22:20:29.326Z,2.00
2019-01-10T22:23:01.324Z,2.03
2019-01-10T22:25:33.250Z,2.63
2019-01-10T22:28:05.164Z,2.43
2019-01-10T22:30:37.010Z,3.23
2019-01-10T22:33:10.264Z,3.20
2019-01-10T22:35:42.448Z,3.23
2019-01-10T22:38:14.324Z,3.20
2019-01-10T22:40:46.310Z,3.10
2019-01-10T22:43:18.301Z,3.33
2019-01-10T22:45:50.177Z,3.33
2019-01-10T22:48:22.025Z,3.43
2019-01-10T22:50:54.718Z,3.50
2019-01-10T22:53:26.881Z,2.80
2019-01-10T22:55:58.767Z,2.53
2019-01-10T22:58:30.738Z,2.87
2019-01-10T23:01:32.661Z,2.30
2019-01-10T23:04:08.111Z,2.53
2019-01-10T23:06:39.948Z,2.47
2019-01-10T23:09:12.047Z,2.37
2019-01-10T23:11:44.326Z,2.37
2019-01-10T23:14:16.406Z,2.60
2019-01-10T23:16:48.604Z,2.20
2019-01-10T23:19:20.642Z,2.30
2019-01-10T23:21:52.776Z,2.13
2019-01-10T23:24:26.893Z,2.20
2019-01-10T23:26:58.437Z,1.90
2019-01-10T23:29:36.755Z,2.43
2019-01-10T23:32:15.039Z,1.83
2019-01-10T23:34:51.840Z,2.40
2019-01-10T23:37:28.029Z,2.23
2019-01-10T23:39:59.968Z,2.27
2019-01-10T23:42:31.813Z,2.27
2019-01-10T23:45:03.745Z,3.00
2019-01-10T23:47:35.888Z,3.10
2019-01-10T23:50:08.198Z,3.17
2019-01-10T23:52:40.039Z,2.70
2019-01-10T23:55:11.950Z,2.83
2019-01-10T23:57:45.061Z,2.90
